sensor_id;sensor_type;location;lat;lon;timestamp;pressure;altitude;pressure_sealevel;temperature;humidity
21900;BME280;11114;50.658;12.704;2022-12-07T14:36:11;95546.53;;;-5.57;97.87
21900;BME280;11114;50.658;12.704;2022-12-07T14:38:40;95546.06;;;-5.51;99.00
21900;BME280;11114;50.658;12.704;2022-12-07T14:41:15;95542.41;;;-5.38;100.00
21900;BME280;11114;50.658;12.704;2022-12-07T14:44:10;95549.69;;;-5.22;100.00
21900;BME280;11114;50.658;12.704;2022-12-07T14:46:58;95546.00;;;-5.09;98.94
21900;BME280;11114;50.658;12.704;2022-12-07T14:49:49;95541.34;;;-4.95;99.47
21900;BME280;11114;50.658;12.704;2022-12-07T14:52:21;95545.19;;;-4.89;98.76
21900;BME280;11114;50.658;12.704;2022-12-07T14:55:16;95545.28;;;-4.80;98.48
21900;BME280;11114;50.658;12.704;2022-12-07T14:57:47;95539.16;;;-4.79;95.98
21900;BME280;11114;50.658;12.704;2022-12-07T15:00:16;95548.03;;;-4.72;97.86
21900;BME280;11114;50.658;12.704;2022-12-07T15:02:46;95556.19;;;-4.67;97.55
21900;BME280;11114;50.658;12.704;2022-12-07T15:05:14;95554.53;;;-4.68;96.18
21900;BME280;11114;50.658;12.704;2022-12-07T15:07:44;95560.53;;;-4.67;96.11
21900;BME280;11114;50.658;12.704;2022-12-07T15:10:23;95565.31;;;-4.63;96.71
21900;BME280;11114;50.658;12.704;2022-12-07T15:13:01;95555.66;;;-4.61;97.10
21900;BME280;11114;50.658;12.704;2022-12-07T15:16:11;95555.66;;;-4.61;94.21
21900;BME280;11114;50.658;12.704;2022-12-07T15:18:40;95550.03;;;-4.55;96.49
21900;BME280;11114;50.658;12.704;2022-12-07T15:21:24;95562.38;;;-4.49;96.31
21900;BME280;11114;50.658;12.704;2022-12-07T15:23:53;95552.78;;;-4.47;96.30
21900;BME280;11114;50.658;12.704;2022-12-07T15:26:21;95551.84;;;-4.46;96.26
21900;BME280;11114;50.658;12.704;2022-12-07T15:28:48;95554.53;;;-4.47;95.33
21900;BME280;11114;50.658;12.704;2022-12-07T15:31:17;95552.31;;;-4.52;95.61
21900;BME280;11114;50.658;12.704;2022-12-07T15:34:04;95558.50;;;-4.43;95.76
21900;BME280;11114;50.658;12.704;2022-12-07T15:36:36;95561.22;;;-4.45;94.91
21900;BME280;11114;50.658;12.704;2022-12-07T15:39:03;95554.41;;;-4.46;94.49
21900;BME280;11114;50.658;12.704;2022-12-07T15:41:41;95549.50;;;-4.49;94.51
21900;BME280;11114;50.658;12.704;2022-12-07T15:44:12;95548.19;;;-4.43;94.69
21900;BME280;11114;50.658;12.704;2022-12-07T15:46:59;95539.50;;;-4.42;94.43
21900;BME280;11114;50.658;12.704;2022-12-07T15:49:27;95544.97;;;-4.36;94.23
21900;BME280;11114;50.658;12.704;2022-12-07T15:51:55;95548.22;;;-4.34;94.24
21900;BME280;11114;50.658;12.704;2022-12-07T15:54:26;95554.91;;;-4.32;94.14
21900;BME280;11114;50.658;12.704;2022-12-07T15:56:55;95548.91;;;-4.32;93.66
21900;BME280;11114;50.658;12.704;2022-12-07T15:59:23;95546.31;;;-4.32;93.17
21900;BME280;11114;50.658;12.704;2022-12-07T16:01:51;95549.44;;;-4.38;92.67
21900;BME280;11114;50.658;12.704;2022-12-07T16:04:19;95547.09;;;-4.41;92.37
21900;BME280;11114;50.658;12.704;2022-12-07T16:06:47;95548.31;;;-4.45;92.78
21900;BME280;11114;50.658;12.704;2022-12-07T16:09:14;95550.06;;;-4.45;92.28
21900;BME280;11114;50.658;12.704;2022-12-07T16:11:42;95554.41;;;-4.46;92.43
21900;BME280;11114;50.658;12.704;2022-12-07T16:14:10;95551.13;;;-4.48;92.60
21900;BME280;11114;50.658;12.704;2022-12-07T16:16:37;95554.13;;;-4.43;92.53
21900;BME280;11114;50.658;12.704;2022-12-07T16:19:08;95554.97;;;-4.42;91.75
21900;BME280;11114;50.658;12.704;2022-12-07T16:21:36;95554.41;;;-4.46;91.01
21900;BME280;11114;50.658;12.704;2022-12-07T16:24:07;95548.81;;;-4.51;90.28
21900;BME280;11114;50.658;12.704;2022-12-07T16:26:35;95556.91;;;-4.55;91.03
21900;BME280;11114;50.658;12.704;2022-12-07T16:29:03;95561.69;;;-4.51;91.87
21900;BME280;11114;50.658;12.704;2022-12-07T16:31:31;95553.19;;;-4.42;91.86
21900;BME280;11114;50.658;12.704;2022-12-07T16:33:59;95557.94;;;-4.47;89.66
21900;BME280;11114;50.658;12.704;2022-12-07T16:36:26;95558.19;;;-4.50;90.55
21900;BME280;11114;50.658;12.704;2022-12-07T16:39:14;95555.19;;;-4.55;89.79
21900;BME280;11114;50.658;12.704;2022-12-07T16:41:42;95560.16;;;-4.63;89.43
21900;BME280;11114;50.658;12.704;2022-12-07T16:44:11;95555.09;;;-4.64;90.06
21900;BME280;11114;50.658;12.704;2022-12-07T16:46:40;95562.59;;;-4.61;90.24
21900;BME280;11114;50.658;12.704;2022-12-07T16:49:12;95571.81;;;-4.59;90.50
21900;BME280;11114;50.658;12.704;2022-12-07T16:51:40;95560.25;;;-4.64;89.28
21900;BME280;11114;50.658;12.704;2022-12-07T16:54:12;95563.78;;;-4.65;90.18
21900;BME280;11114;50.658;12.704;2022-12-07T16:56:40;95567.56;;;-4.69;89.87
21900;BME280;11114;50.658;12.704;2022-12-07T16:59:08;95571.66;;;-4.67;90.03
21900;BME280;11114;50.658;12.704;2022-12-07T17:01:37;95568.69;;;-4.62;90.65
21900;BME280;11114;50.658;12.704;2022-12-07T17:04:04;95570.88;;;-4.58;90.45
21900;BME280;11114;50.658;12.704;2022-12-07T17:06:32;95576.03;;;-4.58;89.95
21900;BME280;11114;50.658;12.704;2022-12-07T17:09:00;95573.97;;;-4.64;90.01
21900;BME280;11114;50.658;12.704;2022-12-07T17:11:29;95582.28;;;-4.60;90.30
21900;BME280;11114;50.658;12.704;2022-12-07T17:14:00;95573.47;;;-4.58;90.05
21900;BME280;11114;50.658;12.704;2022-12-07T17:16:46;95569.63;;;-4.63;89.25
21900;BME280;11114;50.658;12.704;2022-12-07T17:19:15;95566.81;;;-4.60;89.86
21900;BME280;11114;50.658;12.704;2022-12-07T17:21:44;95579.84;;;-4.62;89.84
21900;BME280;11114;50.658;12.704;2022-12-07T17:24:14;95574.97;;;-4.55;90.41
21900;BME280;11114;50.658;12.704;2022-12-07T17:26:44;95560.06;;;-4.52;89.92
21900;BME280;11114;50.658;12.704;2022-12-07T17:29:14;95561.84;;;-4.52;90.03
21900;BME280;11114;50.658;12.704;2022-12-07T17:31:42;95564.66;;;-4.55;89.84
21900;BME280;11114;50.658;12.704;2022-12-07T17:34:17;95562.63;;;-4.52;90.15
21900;BME280;11114;50.658;12.704;2022-12-07T17:36:45;95562.00;;;-4.44;90.28
21900;BME280;11114;50.658;12.704;2022-12-07T17:39:15;95563.66;;;-4.43;89.83
21900;BME280;11114;50.658;12.704;2022-12-07T17:41:43;95562.25;;;-4.47;89.67
21900;BME280;11114;50.658;12.704;2022-12-07T17:44:30;95563.25;;;-4.39;90.04
21900;BME280;11114;50.658;12.704;2022-12-07T17:46:57;95559.75;;;-4.38;89.40
21900;BME280;11114;50.658;12.704;2022-12-07T17:49:26;95551.94;;;-4.47;88.81
21900;BME280;11114;50.658;12.704;2022-12-07T17:51:54;95561.22;;;-4.45;89.57
21900;BME280;11114;50.658;12.704;2022-12-07T17:54:40;95567.41;;;-4.47;89.17
21900;BME280;11114;50.658;12.704;2022-12-07T17:57:08;95570.38;;;-4.52;88.71
21900;BME280;11114;50.658;12.704;2022-12-07T17:59:36;95563.28;;;-4.59;89.09
21900;BME280;11114;50.658;12.704;2022-12-07T18:02:04;95575.81;;;-4.55;89.34
21900;BME280;11114;50.658;12.704;2022-12-07T18:04:32;95564.94;;;-4.58;88.67
21900;BME280;11114;50.658;12.704;2022-12-07T18:06:59;95571.03;;;-4.59;89.14
21900;BME280;11114;50.658;12.704;2022-12-07T18:09:27;95562.47;;;-4.60;88.71
21900;BME280;11114;50.658;12.704;2022-12-07T18:11:55;95560.03;;;-4.61;88.87
21900;BME280;11114;50.658;12.704;2022-12-07T18:14:22;95557.56;;;-4.63;88.57
21900;BME280;11114;50.658;12.704;2022-12-07T18:16:50;95554.31;;;-4.65;88.57
21900;BME280;11114;50.658;12.704;2022-12-07T18:19:18;95553.19;;;-4.72;87.96
21900;BME280;11114;50.658;12.704;2022-12-07T18:21:45;95555.19;;;-4.75;88.67
21900;BME280;11114;50.658;12.704;2022-12-07T18:24:15;95552.72;;;-4.77;87.82
21900;BME280;11114;50.658;12.704;2022-12-07T18:26:44;95556.56;;;-4.71;89.17
21900;BME280;11114;50.658;12.704;2022-12-07T18:29:16;95560.03;;;-4.61;89.00
21900;BME280;11114;50.658;12.704;2022-12-07T18:31:45;95555.81;;;-4.62;88.49
21900;BME280;11114;50.658;12.704;2022-12-07T18:34:16;95551.88;;;-4.66;88.16
21900;BME280;11114;50.658;12.704;2022-12-07T18:36:46;95552.34;;;-4.72;88.45
21900;BME280;11114;50.658;12.704;2022-12-07T18:39:17;95557.81;;;-4.66;88.72
21900;BME280;11114;50.658;12.704;2022-12-07T18:41:45;95559.31;;;-4.63;88.69
21900;BME280;11114;50.658;12.704;2022-12-07T18:44:13;95548.63;;;-4.59;88.59
21900;BME280;11114;50.658;12.704;2022-12-07T18:46:40;95552.44;;;-4.63;88.21
21900;BME280;11114;50.658;12.704;2022-12-07T18:49:12;95545.09;;;-4.58;88.27
21900;BME280;11114;50.658;12.704;2022-12-07T18:51:41;95542.78;;;-4.61;87.84
21900;BME280;11114;50.658;12.704;2022-12-07T18:54:09;95544.56;;;-4.61;88.29
21900;BME280;11114;50.658;12.704;2022-12-07T18:56:37;95544.41;;;-4.60;88.52
21900;BME280;11114;50.658;12.704;2022-12-07T18:59:05;95556.69;;;-4.52;88.68
21900;BME280;11114;50.658;12.704;2022-12-07T19:01:53;95548.56;;;-4.48;88.30
21900;BME280;11114;50.658;12.704;2022-12-07T19:04:21;95549.75;;;-4.52;87.09
21900;BME280;11114;50.658;12.704;2022-12-07T19:06:49;95539.94;;;-4.58;87.11
21900;BME280;11114;50.658;12.704;2022-12-07T19:09:18;95544.00;;;-4.65;87.82
21900;BME280;11114;50.658;12.704;2022-12-07T19:11:46;95546.56;;;-4.65;88.09
21900;BME280;11114;50.658;12.704;2022-12-07T19:16:53;95540.19;;;-4.61;87.89
21900;BME280;11114;50.658;12.704;2022-12-07T19:19:22;95537.06;;;-4.64;87.78
21900;BME280;11114;50.658;12.704;2022-12-07T19:21:51;95543.16;;;-4.65;88.04
21900;BME280;11114;50.658;12.704;2022-12-07T19:24:18;95538.31;;;-4.59;88.31
21900;BME280;11114;50.658;12.704;2022-12-07T19:26:51;95536.28;;;-4.55;88.34
21900;BME280;11114;50.658;12.704;2022-12-07T19:29:19;95538.06;;;-4.56;88.32
21900;BME280;11114;50.658;12.704;2022-12-07T19:31:47;95536.44;;;-4.57;88.14
21900;BME280;11114;50.658;12.704;2022-12-07T19:34:17;95534.78;;;-4.58;88.16
21900;BME280;11114;50.658;12.704;2022-12-07T19:36:45;95529.63;;;-4.58;87.86
21900;BME280;11114;50.658;12.704;2022-12-07T19:39:13;95534.78;;;-4.58;88.09
21900;BME280;11114;50.658;12.704;2022-12-07T19:41:44;95526.25;;;-4.58;88.00
21900;BME280;11114;50.658;12.704;2022-12-07T19:44:15;95523.31;;;-4.54;88.34
21900;BME280;11114;50.658;12.704;2022-12-07T19:46:45;95518.94;;;-4.53;87.94
21900;BME280;11114;50.658;12.704;2022-12-07T19:49:17;95521.28;;;-4.50;88.16
21900;BME280;11114;50.658;12.704;2022-12-07T19:51:48;95520.03;;;-4.56;87.21
21900;BME280;11114;50.658;12.704;2022-12-07T19:54:19;95515.41;;;-4.62;87.85
21900;BME280;11114;50.658;12.704;2022-12-07T19:56:48;95518.53;;;-4.58;88.26
21900;BME280;11114;50.658;12.704;2022-12-07T19:59:18;95517.59;;;-4.57;88.19
21900;BME280;11114;50.658;12.704;2022-12-07T20:01:46;95523.94;;;-4.61;87.79
21900;BME280;11114;50.658;12.704;2022-12-07T20:04:17;95518.78;;;-4.61;87.68
21900;BME280;11114;50.658;12.704;2022-12-07T20:06:50;95518.34;;;-4.66;87.46
21900;BME280;11114;50.658;12.704;2022-12-07T20:09:19;95519.16;;;-4.66;87.79
21900;BME280;11114;50.658;12.704;2022-12-07T20:11:47;95520.94;;;-4.66;87.49
21900;BME280;11114;50.658;12.704;2022-12-07T20:14:33;95513.31;;;-4.68;87.74
21900;BME280;11114;50.658;12.704;2022-12-07T20:17:01;95512.69;;;-4.60;88.04
21900;BME280;11114;50.658;12.704;2022-12-07T20:19:29;95510.91;;;-4.60;87.34
21900;BME280;11114;50.658;12.704;2022-12-07T20:21:56;95517.69;;;-4.59;87.72
21900;BME280;11114;50.658;12.704;2022-12-07T20:24:24;95511.34;;;-4.55;88.05
21900;BME280;11114;50.658;12.704;2022-12-07T20:26:53;95516.13;;;-4.50;87.91
21900;BME280;11114;50.658;12.704;2022-12-07T20:29:23;95515.28;;;-4.51;87.35
21900;BME280;11114;50.658;12.704;2022-12-07T20:31:52;95512.00;;;-4.53;87.30
21900;BME280;11114;50.658;12.704;2022-12-07T20:34:20;95514.34;;;-4.50;87.70
21900;BME280;11114;50.658;12.704;2022-12-07T20:36:48;95506.06;;;-4.53;87.52
21900;BME280;11114;50.658;12.704;2022-12-07T20:39:16;95509.72;;;-4.56;86.82
21900;BME280;11114;50.658;12.704;2022-12-07T20:41:44;95500.47;;;-4.58;87.50
21900;BME280;11114;50.658;12.704;2022-12-07T20:44:30;95494.78;;;-4.62;87.19
21900;BME280;11114;50.658;12.704;2022-12-07T20:46:58;95502.63;;;-4.63;87.43
21900;BME280;11114;50.658;12.704;2022-12-07T20:49:25;95496.47;;;-4.72;87.38
21900;BME280;11114;50.658;12.704;2022-12-07T20:51:53;95498.59;;;-4.77;87.71
21900;BME280;11114;50.658;12.704;2022-12-07T20:54:21;95502.69;;;-4.74;87.86
21900;BME280;11114;50.658;12.704;2022-12-07T20:56:48;95504.22;;;-4.72;88.29
21900;BME280;11114;50.658;12.704;2022-12-07T20:59:16;95495.66;;;-4.72;87.65
21900;BME280;11114;50.658;12.704;2022-12-07T21:01:44;95502.13;;;-4.78;87.75
21900;BME280;11114;50.658;12.704;2022-12-07T21:04:12;95500.38;;;-4.77;88.11
21900;BME280;11114;50.658;12.704;2022-12-07T21:06:40;95495.34;;;-4.79;88.21
